createdAt,value
2023-04-20T00:02:06.393Z,48.30
2023-04-20T00:04:31.501Z,48.00
2023-04-20T00:06:56.977Z,49.70
2023-04-20T00:09:20.281Z,49.30
2023-04-20T00:11:43.572Z,49.20
2023-04-20T00:14:07.339Z,48.20
2023-04-20T00:16:32.372Z,48.10
2023-04-20T00:18:55.756Z,49.10
2023-04-20T00:21:21.815Z,48.70
2023-04-20T00:23:45.086Z,49.30
2023-04-20T00:26:08.668Z,48.70
2023-04-20T00:28:32.780Z,51.20
2023-04-20T00:30:56.445Z,49.80
2023-04-20T00:33:21.130Z,51.00
2023-04-20T00:35:44.357Z,49.70
2023-04-20T00:38:07.588Z,49.40
2023-04-20T00:40:30.994Z,48.50
2023-04-20T00:42:54.296Z,47.90
2023-04-20T00:45:22.152Z,48.40
2023-04-20T00:47:46.238Z,50.00
2023-04-20T00:50:12.645Z,49.00
2023-04-20T00:52:36.144Z,49.90
2023-04-20T00:54:59.705Z,54.10
2023-04-20T00:57:24.507Z,50.90
2023-04-20T00:59:48.086Z,50.90
2023-04-20T01:02:12.078Z,51.60
2023-04-20T01:04:38.172Z,50.80
2023-04-20T01:07:02.901Z,51.70
2023-04-20T01:09:26.175Z,51.60
2023-04-20T01:11:49.753Z,52.60
2023-04-20T01:14:13.022Z,51.20
2023-04-20T01:16:36.754Z,50.80
2023-04-20T01:19:01.208Z,51.30
2023-04-20T01:21:24.837Z,49.90
2023-04-20T01:23:50.774Z,51.80
2023-04-20T01:26:17.146Z,51.10
2023-04-20T01:28:40.608Z,52.90
2023-04-20T01:31:05.737Z,52.20
2023-04-20T01:33:29.132Z,53.30
2023-04-20T01:35:54.072Z,55.40
2023-04-20T01:38:19.751Z,52.50
2023-04-20T01:40:44.383Z,52.80
2023-04-20T01:43:07.711Z,53.30
2023-04-20T01:45:31.038Z,52.30
2023-04-20T01:47:54.474Z,52.70
2023-04-20T01:50:17.973Z,55.00
2023-04-20T01:52:41.348Z,54.00
2023-04-20T01:55:08.769Z,52.90
2023-04-20T01:57:33.442Z,52.20
2023-04-20T01:59:56.658Z,53.90
2023-04-20T02:02:19.915Z,53.10
2023-04-20T02:04:43.224Z,53.30
2023-04-20T02:07:06.649Z,53.60
2023-04-20T02:09:33.397Z,53.10
2023-04-20T02:11:56.851Z,54.50
2023-04-20T02:14:21.974Z,55.50
2023-04-20T02:16:45.626Z,53.20
2023-04-20T02:19:08.917Z,55.20
2023-04-20T02:21:32.187Z,53.00
2023-04-20T02:23:55.663Z,53.60
2023-04-20T02:26:18.982Z,53.60
2023-04-20T02:28:42.440Z,51.70
2023-04-20T02:31:07.549Z,53.20
2023-04-20T02:33:31.264Z,53.50
2023-04-20T02:35:54.548Z,52.60
2023-04-20T02:38:17.836Z,53.00
2023-04-20T02:40:41.124Z,53.20
2023-04-20T02:43:04.914Z,54.90
2023-04-20T02:45:30.811Z,54.90
2023-04-20T02:47:56.153Z,53.30
2023-04-20T02:50:21.340Z,55.00
2023-04-20T02:53:13.948Z,54.20
2023-04-20T02:55:38.988Z,54.90
2023-04-20T02:58:14.085Z,55.00
2023-04-20T03:01:01.371Z,54.70
2023-04-20T03:03:27.432Z,56.70
2023-04-20T03:05:50.976Z,54.90
2023-04-20T03:08:14.398Z,55.90
2023-04-20T03:10:38.694Z,56.30
2023-04-20T03:13:10.755Z,55.90
2023-04-20T03:15:48.832Z,55.00
2023-04-20T03:18:32.000Z,56.80
2023-04-20T03:20:55.748Z,56.90
2023-04-20T03:23:19.033Z,58.30
2023-04-20T03:25:42.768Z,57.30
2023-04-20T03:28:13.399Z,56.80
2023-04-20T03:30:37.772Z,56.70
2023-04-20T03:33:07.037Z,57.10
2023-04-20T03:35:32.075Z,55.90
2023-04-20T03:37:55.499Z,60.40
2023-04-20T03:40:18.848Z,58.20
2023-04-20T03:42:42.838Z,56.50
2023-04-20T03:45:07.923Z,57.50
2023-04-20T03:47:31.242Z,57.00
2023-04-20T03:49:54.589Z,56.60
2023-04-20T03:52:19.204Z,59.40
2023-04-20T03:54:42.880Z,58.10
2023-04-20T03:57:09.285Z,57.20
2023-04-20T03:59:32.666Z,58.30
2023-04-20T04:01:58.705Z,59.30
2023-04-20T04:04:22.809Z,58.20
2023-04-20T04:06:46.883Z,60.20
2023-04-20T04:09:11.596Z,60.80
2023-04-20T04:11:34.842Z,58.90
2023-04-20T04:13:59.706Z,59.90
2023-04-20T04:16:24.626Z,62.30
2023-04-20T04:18:48.878Z,61.10
2023-04-20T04:21:12.221Z,60.20
2023-04-20T04:23:38.894Z,59.50
2023-04-20T04:26:26.734Z,60.20
2023-04-20T04:28:50.936Z,60.60
2023-04-20T04:31:17.441Z,61.80
2023-04-20T04:33:41.079Z,61.60
2023-04-20T04:36:06.153Z,61.40
2023-04-20T04:38:31.588Z,62.80
2023-04-20T04:40:56.418Z,61.30
2023-04-20T04:43:21.454Z,62.30
2023-04-20T04:45:55.523Z,63.10
2023-04-20T04:48:19.137Z,63.60
2023-04-20T04:50:42.729Z,63.00
2023-04-20T04:53:06.054Z,62.80
2023-04-20T04:55:29.464Z,62.30
2023-04-20T04:57:52.915Z,63.60
2023-04-20T05:00:20.195Z,64.00
2023-04-20T05:02:43.541Z,62.60
2023-04-20T05:05:09.541Z,64.90
2023-04-20T05:07:33.396Z,65.00
2023-04-20T05:09:56.755Z,64.60
2023-04-20T05:12:20.309Z,64.70
2023-04-20T05:14:43.598Z,65.70
2023-04-20T05:17:08.207Z,64.90
2023-04-20T05:19:31.574Z,66.20
2023-04-20T05:21:54.849Z,65.20
2023-04-20T05:24:19.425Z,66.20
2023-04-20T05:26:42.689Z,65.70
2023-04-20T05:29:06.036Z,65.90
2023-04-20T05:31:29.343Z,66.60
2023-04-20T05:33:54.114Z,66.10
2023-04-20T05:36:17.363Z,65.90
2023-04-20T05:38:40.625Z,66.90
2023-04-20T05:41:04.742Z,66.70
2023-04-20T05:43:28.072Z,67.40
2023-04-20T05:45:52.024Z,66.90
2023-04-20T05:48:15.319Z,66.90
2023-04-20T05:50:40.374Z,67.80
2023-04-20T05:53:03.688Z,67.40
2023-04-20T05:55:27.009Z,67.50
2023-04-20T05:57:51.793Z,68.20
2023-04-20T06:00:17.665Z,68.00
2023-04-20T06:02:42.034Z,67.90
2023-04-20T06:05:06.135Z,68.20
2023-04-20T06:07:30.862Z,68.70
2023-04-20T06:09:54.364Z,68.70
2023-04-20T06:12:17.667Z,67.80
2023-04-20T06:14:41.034Z,67.80
2023-04-20T06:17:04.360Z,68.40
2023-04-20T06:19:27.721Z,68.20
2023-04-20T06:21:51.074Z,68.50
2023-04-20T06:24:15.659Z,68.40
2023-04-20T06:26:39.363Z,68.60
2023-04-20T06:29:02.601Z,68.40
2023-04-20T06:31:26.096Z,69.00
2023-04-20T06:33:49.415Z,68.70
2023-04-20T06:36:12.950Z,69.60
2023-04-20T06:38:36.293Z,69.30
2023-04-20T06:41:02.524Z,69.30
2023-04-20T06:43:25.837Z,69.80
2023-04-20T06:45:49.100Z,69.60
2023-04-20T06:48:27.628Z,70.30
2023-04-20T06:50:54.577Z,70.60
2023-04-20T06:53:22.258Z,70.20
2023-04-20T06:55:45.605Z,70.40
2023-04-20T06:58:10.486Z,71.00
2023-04-20T07:00:33.820Z,70.80
2023-04-20T07:02:57.093Z,70.50
2023-04-20T07:05:20.870Z,71.60
2023-04-20T07:07:45.082Z,71.30
2023-04-20T07:10:09.811Z,71.60
2023-04-20T07:12:33.239Z,71.10
2023-04-20T07:14:57.826Z,71.30
2023-04-20T07:17:21.164Z,72.00
2023-04-20T07:19:44.382Z,72.00
2023-04-20T07:22:07.757Z,72.50
2023-04-20T07:24:31.081Z,72.70
2023-04-20T07:26:55.636Z,73.20
2023-04-20T07:29:19.217Z,73.30
2023-04-20T07:31:44.151Z,74.10
2023-04-20T07:34:07.425Z,74.40
2023-04-20T07:36:31.235Z,74.40
2023-04-20T07:38:54.472Z,74.70
2023-04-20T07:41:17.925Z,74.90
2023-04-20T07:43:41.192Z,75.80
2023-04-20T07:46:04.503Z,74.90
2023-04-20T07:48:29.170Z,75.30
2023-04-20T07:50:52.485Z,75.10
2023-04-20T07:53:16.111Z,74.90
2023-04-20T07:55:39.484Z,75.00
2023-04-20T07:58:02.937Z,75.20
2023-04-20T08:00:26.789Z,75.30
2023-04-20T08:02:50.416Z,75.00
2023-04-20T08:05:15.381Z,75.30
2023-04-20T08:07:38.857Z,74.50
2023-04-20T08:10:02.963Z,74.20
2023-04-20T08:12:26.277Z,75.00
2023-04-20T08:14:49.556Z,74.80
2023-04-20T08:17:12.916Z,74.70
2023-04-20T08:19:36.193Z,73.50
2023-04-20T08:22:01.508Z,73.60
2023-04-20T08:24:25.692Z,74.20
2023-04-20T08:26:49.494Z,73.50
2023-04-20T08:29:12.859Z,73.20
2023-04-20T08:31:37.061Z,73.40
2023-04-20T08:34:00.416Z,73.30
2023-04-20T08:36:24.112Z,73.00
2023-04-20T08:38:56.111Z,72.70
2023-04-20T08:41:19.399Z,72.90
2023-04-20T08:43:42.673Z,73.40
2023-04-20T08:46:06.448Z,72.90
2023-04-20T08:48:35.600Z,72.70
2023-04-20T08:50:58.849Z,72.80
2023-04-20T08:53:22.714Z,72.70
2023-04-20T08:55:47.328Z,71.90
2023-04-20T08:58:10.606Z,72.80
2023-04-20T09:00:33.871Z,74.10
2023-04-20T09:02:59.073Z,74.20
2023-04-20T09:05:30.961Z,74.70
2023-04-20T09:07:54.571Z,73.90
2023-04-20T09:10:17.732Z,72.50
2023-04-20T09:12:45.491Z,73.20
2023-04-20T09:15:10.639Z,71.40
2023-04-20T09:17:37.129Z,70.40
2023-04-20T09:20:00.509Z,70.80
2023-04-20T09:22:32.295Z,70.90
2023-04-20T09:24:55.856Z,70.60
2023-04-20T09:27:21.738Z,71.70
2023-04-20T09:29:57.221Z,70.60
2023-04-20T09:32:24.226Z,70.90
2023-04-20T09:34:47.543Z,71.10
2023-04-20T09:37:11.506Z,71.40
2023-04-20T09:39:35.353Z,71.00
2023-04-20T09:42:05.842Z,71.00
2023-04-20T09:44:29.089Z,71.00
2023-04-20T09:46:54.097Z,70.90
2023-04-20T09:49:17.410Z,71.80
2023-04-20T09:51:45.138Z,71.80
2023-04-20T09:54:09.029Z,73.00
2023-04-20T09:56:34.511Z,72.20
2023-04-20T09:58:58.854Z,71.40
2023-04-20T10:01:23.545Z,71.60
2023-04-20T10:03:48.849Z,71.20
2023-04-20T10:06:21.357Z,71.90
2023-04-20T10:08:44.775Z,72.80
2023-04-20T10:11:08.924Z,72.10
2023-04-20T10:13:35.321Z,71.50
2023-04-20T10:15:58.775Z,72.00
2023-04-20T10:18:24.993Z,71.80
2023-04-20T10:20:51.052Z,74.10
2023-04-20T10:23:16.222Z,75.00
2023-04-20T10:25:39.678Z,74.60
2023-04-20T10:28:09.490Z,75.00
2023-04-20T10:30:34.655Z,73.00
2023-04-20T10:33:09.877Z,73.40
2023-04-20T10:35:45.791Z,73.30
2023-04-20T10:38:11.405Z,72.40
2023-04-20T10:40:34.621Z,72.90
2023-04-20T10:42:57.905Z,72.60
2023-04-20T10:45:21.960Z,71.30
2023-04-20T10:47:45.642Z,70.90
2023-04-20T10:50:12.291Z,67.80
2023-04-20T10:52:36.653Z,68.00
2023-04-20T10:55:01.420Z,65.50
2023-04-20T10:57:24.687Z,66.60
2023-04-20T10:59:47.943Z,67.30
2023-04-20T11:02:12.792Z,66.90
2023-04-20T11:04:37.262Z,67.50
2023-04-20T11:07:07.460Z,72.60
2023-04-20T11:09:31.314Z,75.50
2023-04-20T11:12:04.003Z,76.40
2023-04-20T11:14:27.394Z,76.80
2023-04-20T11:16:54.108Z,76.70
2023-04-20T11:19:26.337Z,77.30
2023-04-20T11:21:49.586Z,75.80
2023-04-20T11:24:20.590Z,73.70
2023-04-20T11:26:44.122Z,69.60
2023-04-20T11:29:08.825Z,68.50
2023-04-20T11:31:32.296Z,67.80
2023-04-20T11:33:55.513Z,68.00
2023-04-20T11:36:23.273Z,65.30
2023-04-20T11:38:46.498Z,64.20
2023-04-20T11:41:09.702Z,64.80
2023-04-20T11:43:33.067Z,65.40
2023-04-20T11:45:58.426Z,65.40
2023-04-20T11:48:22.587Z,63.40
2023-04-20T11:50:46.098Z,63.80
2023-04-20T11:53:10.280Z,64.20
2023-04-20T11:55:33.765Z,64.40
2023-04-20T11:57:56.975Z,66.10
2023-04-20T12:00:21.950Z,66.30
2023-04-20T12:02:46.950Z,65.10
2023-04-20T12:05:11.011Z,64.80
2023-04-20T12:07:34.384Z,65.40
2023-04-20T12:09:57.616Z,63.40
2023-04-20T12:12:22.162Z,62.90
2023-04-20T12:14:45.596Z,61.50
2023-04-20T12:17:08.828Z,62.80
2023-04-20T12:19:33.884Z,60.40
2023-04-20T12:21:57.179Z,58.70
2023-04-20T12:24:20.526Z,59.80
2023-04-20T12:26:43.821Z,60.20
2023-04-20T12:29:08.186Z,60.60
2023-04-20T12:31:31.717Z,60.60
2023-04-20T12:33:55.055Z,58.20
2023-04-20T12:36:19.710Z,58.00
2023-04-20T12:38:42.944Z,59.40
2023-04-20T12:41:06.553Z,59.90
2023-04-20T12:43:30.705Z,59.60
2023-04-20T12:45:53.855Z,59.30
2023-04-20T12:48:17.119Z,60.00
2023-04-20T12:50:40.331Z,60.20
2023-04-20T12:53:04.994Z,59.30
2023-04-20T12:55:28.301Z,59.80
2023-04-20T12:57:52.101Z,58.40
2023-04-20T13:00:16.547Z,58.80
2023-04-20T13:02:40.134Z,58.30
2023-04-20T13:05:04.233Z,57.70
2023-04-20T13:07:28.000Z,58.00
2023-04-20T13:09:52.910Z,57.70
2023-04-20T13:12:16.208Z,56.40
2023-04-20T13:14:39.602Z,57.30
2023-04-20T13:17:03.110Z,57.30
2023-04-20T13:19:26.529Z,54.30
2023-04-20T13:21:49.770Z,51.90
2023-04-20T13:24:13.119Z,54.00
2023-04-20T13:26:38.175Z,53.80
2023-04-20T13:29:01.504Z,55.30
2023-04-20T13:31:24.953Z,54.40
2023-04-20T13:33:48.196Z,55.90
2023-04-20T13:36:11.531Z,55.90
2023-04-20T13:38:34.745Z,56.50
2023-04-20T13:40:58.548Z,56.80
2023-04-20T13:43:23.588Z,55.70
2023-04-20T13:45:46.937Z,56.60
2023-04-20T13:48:10.453Z,58.90
2023-04-20T13:50:33.745Z,57.60
2023-04-20T13:52:57.045Z,57.00
2023-04-20T13:55:21.259Z,57.80
2023-04-20T13:57:44.504Z,56.20
2023-04-20T14:00:11.103Z,56.80
2023-04-20T14:02:34.917Z,56.20
2023-04-20T14:04:58.421Z,55.30
2023-04-20T14:07:21.734Z,55.20
2023-04-20T14:09:45.218Z,54.30
2023-04-20T14:12:08.769Z,54.40
2023-04-20T14:14:32.050Z,56.10
2023-04-20T14:16:56.675Z,56.40
2023-04-20T14:19:19.887Z,51.70
2023-04-20T14:21:44.449Z,50.90
2023-04-20T14:24:08.297Z,50.90
2023-04-20T14:26:31.597Z,49.40
2023-04-20T14:28:55.549Z,50.30
2023-04-20T14:31:18.872Z,48.90
2023-04-20T14:33:44.610Z,51.10
2023-04-20T14:36:08.521Z,49.00
2023-04-20T14:38:31.795Z,50.10
2023-04-20T14:40:55.266Z,50.10
2023-04-20T14:43:18.512Z,50.60
2023-04-20T14:45:44.759Z,51.20
2023-04-20T14:48:08.542Z,51.30
2023-04-20T14:50:33.777Z,51.10
2023-04-20T14:52:57.288Z,50.90
2023-04-20T14:55:23.444Z,48.20
2023-04-20T14:57:46.721Z,48.60
2023-04-20T15:00:11.836Z,51.60
2023-04-20T15:02:35.247Z,49.90
2023-04-20T15:04:59.783Z,50.60
2023-04-20T15:07:24.995Z,49.10
2023-04-20T15:09:48.208Z,46.30
2023-04-20T15:12:11.503Z,46.30
2023-04-20T15:14:34.705Z,47.20
2023-04-20T15:16:58.007Z,47.50
2023-04-20T15:19:22.577Z,47.60
2023-04-20T15:21:45.919Z,50.50
2023-04-20T15:24:10.682Z,48.00
2023-04-20T15:26:33.897Z,48.80
2023-04-20T15:28:57.696Z,48.60
2023-04-20T15:31:21.013Z,49.20
2023-04-20T15:33:44.798Z,50.20
2023-04-20T15:36:08.927Z,50.70
2023-04-20T15:38:32.153Z,52.20
2023-04-20T15:40:56.760Z,51.60
2023-04-20T15:43:20.011Z,51.10
2023-04-20T15:45:44.834Z,51.20
2023-04-20T15:48:08.869Z,48.80
2023-04-20T15:50:32.485Z,48.00
2023-04-20T15:52:56.256Z,50.10
2023-04-20T15:55:19.836Z,49.10
2023-04-20T15:57:44.949Z,50.40
2023-04-20T16:00:11.165Z,50.30
2023-04-20T16:02:34.995Z,49.80
2023-04-20T16:04:58.571Z,49.50
2023-04-20T16:07:21.932Z,47.80
2023-04-20T16:09:45.260Z,47.90
2023-04-20T16:12:08.540Z,48.60
2023-04-20T16:14:33.263Z,47.00
2023-04-20T16:16:56.805Z,46.80
2023-04-20T16:19:20.171Z,50.30
2023-04-20T16:21:43.496Z,49.80
2023-04-20T16:24:07.060Z,49.60
2023-04-20T16:26:30.430Z,48.70
2023-04-20T16:28:53.744Z,48.20
2023-04-20T16:31:18.661Z,48.10
2023-04-20T16:33:42.832Z,46.70
2023-04-20T16:36:06.905Z,46.20
2023-04-20T16:38:30.136Z,47.00
2023-04-20T16:40:53.651Z,43.60
2023-04-20T16:43:17.121Z,44.70
2023-04-20T16:45:41.432Z,45.40
2023-04-20T16:48:06.578Z,46.60
2023-04-20T16:50:30.220Z,46.00
2023-04-20T16:52:53.493Z,46.00
2023-04-20T16:55:17.017Z,46.50
2023-04-20T16:57:41.169Z,47.60
2023-04-20T17:00:07.656Z,46.80
2023-04-20T17:02:33.201Z,47.60
2023-04-20T17:04:58.149Z,47.90
2023-04-20T17:07:21.448Z,47.80
2023-04-20T17:09:44.799Z,47.80
2023-04-20T17:12:08.781Z,48.10
2023-04-20T17:14:32.677Z,48.10
2023-04-20T17:16:57.286Z,47.90
2023-04-20T17:19:20.622Z,49.40
2023-04-20T17:21:46.303Z,49.10
2023-04-20T17:24:09.856Z,50.30
2023-04-20T17:26:33.182Z,50.40
2023-04-20T17:28:56.530Z,49.50
2023-04-20T17:31:19.777Z,50.50
2023-04-20T17:33:43.413Z,49.40
2023-04-20T17:36:07.487Z,51.60
2023-04-20T17:38:36.471Z,53.20
2023-04-20T17:40:59.784Z,52.90
2023-04-20T17:43:23.045Z,53.50
2023-04-20T17:45:46.445Z,53.50
2023-04-20T17:48:09.861Z,54.70
2023-04-20T17:50:34.931Z,54.00
2023-04-20T17:52:58.257Z,55.30
2023-04-20T17:55:22.978Z,54.60
2023-04-20T17:57:46.219Z,56.20
2023-04-20T18:00:12.107Z,55.60
2023-04-20T18:02:35.630Z,57.50
2023-04-20T18:05:00.858Z,56.80
2023-04-20T18:07:24.194Z,57.30
2023-04-20T18:09:47.539Z,58.40
2023-04-20T18:12:12.227Z,58.60
2023-04-20T18:14:35.517Z,59.70
2023-04-20T18:17:00.378Z,60.60
2023-04-20T18:19:23.770Z,61.30
2023-04-20T18:21:47.064Z,60.80
2023-04-20T18:24:10.344Z,61.40
2023-04-20T18:26:33.658Z,61.70
2023-04-20T18:28:58.252Z,62.60
2023-04-20T18:31:21.597Z,62.80
2023-04-20T18:33:45.046Z,62.80
2023-04-20T18:36:08.851Z,63.00
2023-04-20T18:38:32.228Z,63.40
2023-04-20T18:40:55.733Z,63.80
2023-04-20T18:43:19.245Z,63.90
2023-04-20T18:45:43.970Z,64.30
2023-04-20T18:48:07.597Z,65.40
2023-04-20T18:50:31.073Z,65.20
2023-04-20T18:52:54.404Z,65.50
2023-04-20T18:55:17.804Z,66.20
2023-04-20T18:57:41.522Z,66.60
2023-04-20T19:00:08.618Z,66.60
2023-04-20T19:02:33.466Z,67.50
2023-04-20T19:04:56.848Z,67.30
2023-04-20T19:07:21.723Z,67.60
2023-04-20T19:09:45.086Z,68.60
2023-04-20T19:12:08.461Z,68.40
2023-04-20T19:14:31.749Z,68.40
2023-04-20T19:16:55.063Z,69.10
2023-04-20T19:19:19.941Z,68.60
2023-04-20T19:21:43.620Z,68.80
2023-04-20T19:24:07.864Z,69.40
2023-04-20T19:26:31.150Z,69.50
2023-04-20T19:28:54.474Z,69.80
2023-04-20T19:31:17.774Z,69.80
2023-04-20T19:33:42.016Z,69.40
2023-04-20T19:36:08.215Z,69.60
2023-04-20T19:38:32.967Z,69.60
2023-04-20T19:40:56.323Z,69.70
2023-04-20T19:43:19.737Z,69.70
2023-04-20T19:45:43.094Z,70.20
2023-04-20T19:48:06.993Z,70.40
2023-04-20T19:50:30.368Z,70.60
2023-04-20T19:52:55.404Z,70.10
2023-04-20T19:55:18.711Z,70.50
2023-04-20T19:57:42.064Z,70.70
2023-04-20T20:00:07.995Z,70.40
2023-04-20T20:02:36.225Z,70.90
2023-04-20T20:04:59.642Z,71.10
2023-04-20T20:07:22.963Z,71.40
2023-04-20T20:09:48.012Z,71.90
2023-04-20T20:12:12.415Z,72.00
2023-04-20T20:14:37.556Z,72.20
2023-04-20T20:17:01.188Z,72.70
2023-04-20T20:19:24.956Z,73.10
2023-04-20T20:21:48.283Z,73.50
2023-04-20T20:24:11.522Z,73.50
2023-04-20T20:26:36.335Z,73.60
2023-04-20T20:28:59.651Z,73.80
2023-04-20T20:31:23.128Z,73.80
2023-04-20T20:33:46.682Z,73.70
2023-04-20T20:36:10.497Z,74.00
2023-04-20T20:38:34.543Z,74.10
2023-04-20T20:40:58.683Z,74.30
2023-04-20T20:43:25.166Z,74.30
2023-04-20T20:45:48.578Z,74.80
2023-04-20T20:48:11.991Z,75.10
2023-04-20T20:50:35.279Z,75.40
2023-04-20T20:52:58.650Z,76.90
2023-04-20T20:55:22.128Z,77.20
2023-04-20T20:57:45.964Z,77.80
2023-04-20T21:00:11.926Z,78.80
2023-04-20T21:02:35.822Z,79.80
2023-04-20T21:04:59.197Z,80.30
2023-04-20T21:07:22.865Z,81.30
2023-04-20T21:09:47.069Z,82.20
2023-04-20T21:12:10.309Z,83.20
2023-04-20T21:14:34.768Z,84.30
2023-04-20T21:16:59.541Z,84.50
2023-04-20T21:19:22.812Z,84.90
2023-04-20T21:21:46.118Z,85.50
2023-04-20T21:24:09.479Z,85.90
2023-04-20T21:26:35.841Z,86.10
2023-04-20T21:28:59.134Z,86.70
2023-04-20T21:31:22.344Z,87.10
2023-04-20T21:33:47.026Z,87.60
2023-04-20T21:36:10.577Z,87.70
2023-04-20T21:38:33.928Z,87.90
2023-04-20T21:40:57.176Z,88.40
2023-04-20T21:43:20.525Z,88.90
2023-04-20T21:45:43.789Z,88.70
2023-04-20T21:48:07.676Z,89.10
2023-04-20T21:50:32.287Z,89.00
2023-04-20T21:52:55.773Z,89.30
2023-04-20T21:55:19.182Z,89.60
2023-04-20T21:57:42.522Z,89.80
2023-04-20T22:00:08.665Z,90.10
2023-04-20T22:02:37.870Z,90.20
2023-04-20T22:05:01.207Z,90.20
2023-04-20T22:07:27.616Z,90.30
2023-04-20T22:09:50.882Z,90.40
2023-04-20T22:12:14.075Z,90.50
2023-04-20T22:14:37.515Z,90.60
2023-04-20T22:17:01.777Z,90.70
2023-04-20T22:19:25.089Z,90.80
2023-04-20T22:21:48.483Z,90.90
2023-04-20T22:24:13.198Z,91.00
2023-04-20T22:26:36.504Z,91.00
2023-04-20T22:28:59.776Z,91.00
2023-04-20T22:31:23.063Z,91.20
2023-04-20T22:33:46.377Z,91.10
2023-04-20T22:36:10.748Z,91.20
2023-04-20T22:38:36.441Z,91.30
2023-04-20T22:41:01.238Z,91.30
2023-04-20T22:43:24.597Z,91.30
2023-04-20T22:45:47.825Z,91.50
2023-04-20T22:48:11.025Z,91.70
2023-04-20T22:50:34.965Z,91.60
2023-04-20T22:52:58.178Z,91.70
2023-04-20T22:55:21.487Z,91.90
2023-04-20T22:57:46.368Z,91.90
2023-04-20T23:00:13.578Z,91.90
2023-04-20T23:02:37.130Z,92.00
2023-04-20T23:05:01.371Z,92.00
2023-04-20T23:07:24.619Z,92.00
2023-04-20T23:09:48.239Z,91.90
2023-04-20T23:12:11.785Z,92.10
2023-04-20T23:14:37.009Z,91.90
2023-04-20T23:17:00.224Z,92.10
2023-04-20T23:19:25.713Z,92.10
2023-04-20T23:21:48.956Z,92.30
2023-04-20T23:24:12.245Z,92.30
2023-04-20T23:26:35.802Z,92.30
2023-04-20T23:28:59.065Z,92.30
2023-04-20T23:31:23.745Z,92.40
2023-04-20T23:33:48.338Z,92.40
2023-04-20T23:36:12.769Z,92.40
2023-04-20T23:38:35.954Z,92.40
2023-04-20T23:40:59.226Z,92.40
2023-04-20T23:43:22.481Z,92.50
2023-04-20T23:45:45.807Z,92.40
2023-04-20T23:48:10.593Z,92.50
2023-04-20T23:50:33.919Z,92.60
2023-04-20T23:52:57.113Z,92.60
2023-04-20T23:55:20.585Z,92.60
2023-04-20T23:57:43.807Z,92.70
